createdAt,value
2023-04-10T00:03:17.461Z,7.70
2023-04-10T00:21:55.710Z,15.00
2023-04-10T01:17:57.130Z,3.80
2023-04-10T01:36:30.414Z,4.40
2023-04-10T01:55:09.686Z,5.20
2023-04-10T02:13:48.171Z,5.70
2023-04-10T02:51:06.496Z,3.90
2023-04-10T03:09:44.593Z,6.60
2023-04-10T03:28:23.818Z,9.40
2023-04-10T03:47:04.014Z,9.50
2023-04-10T04:05:43.089Z,11.80
2023-04-10T04:24:22.642Z,13.50
2023-04-10T04:43:01.739Z,10.00
2023-04-10T05:20:21.597Z,13.20
2023-04-10T05:39:02.718Z,10.50
2023-04-10T05:57:45.208Z,4.50
2023-04-10T06:53:45.607Z,5.80
2023-04-10T07:12:25.690Z,4.10
2023-04-10T07:31:07.692Z,3.20
2023-04-10T07:49:44.413Z,4.20
2023-04-10T08:08:26.362Z,4.40
2023-04-10T09:04:26.718Z,5.50
2023-04-10T09:23:13.114Z,6.10
2023-04-10T09:41:49.054Z,3.50
2023-04-10T10:19:21.500Z,3.50
2023-04-10T10:38:11.158Z,1.70
2023-04-10T10:57:00.587Z,1.80
2023-04-10T11:15:45.770Z,1.60
2023-04-10T11:53:21.304Z,1.60
2023-04-10T12:12:02.962Z,2.20
2023-04-10T12:30:46.794Z,1.80
2023-04-10T12:49:29.919Z,1.20
2023-04-10T13:08:11.243Z,1.50
2023-04-10T13:45:43.601Z,1.50
2023-04-10T14:04:21.683Z,5.30
2023-04-10T14:23:02.222Z,1.20
2023-04-10T15:00:32.371Z,1.20
2023-04-10T15:19:08.962Z,1.40
2023-04-10T16:15:07.164Z,0.70
2023-04-10T16:33:46.472Z,1.10
2023-04-10T16:52:25.760Z,0.80
2023-04-10T17:10:51.389Z,2.20
2023-04-10T18:06:02.336Z,2.00
2023-04-10T18:24:36.431Z,3.90
2023-04-10T18:43:13.087Z,3.60
2023-04-10T19:01:57.043Z,3.80
2023-04-10T19:20:48.803Z,2.00
2023-04-10T19:39:07.071Z,2.50
2023-04-10T19:57:38.735Z,4.20
2023-04-10T20:16:16.763Z,3.30
2023-04-10T20:34:53.082Z,3.10
2023-04-10T20:53:31.362Z,4.20
2023-04-10T21:12:09.320Z,2.40
2023-04-10T21:30:47.632Z,3.70
2023-04-10T22:08:03.302Z,3.30
2023-04-10T22:26:46.018Z,6.40
2023-04-10T22:45:19.045Z,3.00
2023-04-10T23:03:56.304Z,2.60
2023-04-10T23:22:35.405Z,2.80
2023-04-10T23:41:14.305Z,2.80
2023-04-10T23:59:52.016Z,12.20
